Time;durP1;ratioP1;P1;durP2;ratioP2;P2;SDS_P1;SDS_P2;PMS_P1;PMS_P2;Temp;Humidity;BMP_temperature;BMP_pressure;BME280_temperature;BME280_humidity;BME280_pressure;Samples;Min_cycle;Max_cycle;Signal;HPM_P1;HPM_P2
2024/03/19 00:00:19;;;;;;;14.80;10.13;;;7.90;99.90;;;;;;6126373;23;20655;-89
2024/03/19 00:02:46;;;;;;;14.77;9.60;;;7.90;99.90;;;;;;6115908;23;20702;-87
2024/03/19 00:05:12;;;;;;;15.63;10.45;;;7.90;99.90;;;;;;6094389;23;20398;-88
2024/03/19 00:07:39;;;;;;;15.20;10.70;;;7.90;99.90;;;;;;6143102;23;20032;-84
2024/03/19 00:10:06;;;;;;;15.48;10.35;;;7.90;99.90;;;;;;6128310;23;20001;-88
2024/03/19 00:12:33;;;;;;;13.80;10.07;;;7.90;99.90;;;;;;6092116;23;20009;-87
2024/03/19 00:14:59;;;;;;;18.02;10.32;;;7.90;99.90;;;;;;6124802;23;20005;-88
2024/03/19 00:17:29;;;;;;;15.48;11.15;;;7.90;99.90;;;;;;6139107;23;20123;-89
2024/03/19 00:19:55;;;;;;;14.65;10.63;;;8.00;99.90;;;;;;6115196;23;20009;-90
2024/03/19 00:22:22;;;;;;;16.20;11.07;;;8.00;99.90;;;;;;6149110;23;20012;-89
2024/03/19 00:24:49;;;;;;;17.85;11.60;;;8.00;99.90;;;;;;6124379;23;20005;-88
2024/03/19 00:27:15;;;;;;;17.55;11.85;;;8.10;99.90;;;;;;6090117;23;20016;-89
2024/03/19 00:29:42;;;;;;;18.45;12.82;;;8.10;99.90;;;;;;6141844;23;20510;-87
2024/03/19 00:32:08;;;;;;;16.00;12.60;;;8.10;99.90;;;;;;6149724;23;20009;-86
2024/03/19 00:34:35;;;;;;;17.10;12.25;;;8.10;99.90;;;;;;6124675;23;20470;-87
2024/03/19 00:37:03;;;;;;;15.75;11.18;;;8.10;99.90;;;;;;6089905;23;20012;-88
2024/03/19 00:39:30;;;;;;;17.15;11.20;;;8.10;99.90;;;;;;6124185;23;20008;-87
2024/03/19 00:41:57;;;;;;;16.95;11.30;;;8.10;99.90;;;;;;6139674;23;20016;-86
2024/03/19 00:44:24;;;;;;;18.35;12.63;;;8.20;99.90;;;;;;6176388;23;20008;-83
2024/03/19 00:46:50;;;;;;;22.50;12.80;;;8.20;99.90;;;;;;6177222;23;20020;-87
2024/03/19 00:49:16;;;;;;;19.50;12.50;;;8.20;99.90;;;;;;6125535;23;19997;-87
2024/03/19 00:51:43;;;;;;;18.80;11.75;;;8.20;99.90;;;;;;6093995;23;20292;-91
2024/03/19 00:54:09;;;;;;;17.77;11.70;;;8.30;99.90;;;;;;6140636;23;20401;-89
2024/03/19 00:56:35;;;;;;;17.80;12.82;;;8.30;99.90;;;;;;6141339;23;20020;-87
2024/03/19 00:59:02;;;;;;;20.45;12.57;;;8.40;99.90;;;;;;6093058;23;20005;-91
2024/03/19 01:01:29;;;;;;;17.63;12.43;;;8.40;99.90;;;;;;6093733;23;20334;-86
2024/03/19 01:03:55;;;;;;;19.02;12.18;;;8.40;99.90;;;;;;6143506;23;20016;-92
2024/03/19 01:06:22;;;;;;;17.83;12.10;;;8.50;99.90;;;;;;6127952;23;20016;-83
2024/03/19 01:08:49;;;;;;;17.17;11.73;;;8.50;99.90;;;;;;6095519;23;20025;-90
2024/03/19 01:11:15;;;;;;;16.77;11.93;;;8.50;99.90;;;;;;6120744;23;20005;-87
2024/03/19 01:13:43;;;;;;;17.70;11.30;;;8.50;99.90;;;;;;6133275;23;20245;-88
2024/03/19 01:16:10;;;;;;;19.42;12.35;;;8.50;99.90;;;;;;6154895;23;20016;-88
2024/03/19 01:18:36;;;;;;;14.75;10.77;;;8.50;99.90;;;;;;6118981;23;20016;-89
2024/03/19 01:21:03;;;;;;;19.27;12.57;;;8.60;99.90;;;;;;6094306;23;20437;-88
2024/03/19 01:23:29;;;;;;;15.27;11.23;;;8.60;99.90;;;;;;6128590;23;20016;-89
2024/03/19 01:25:56;;;;;;;17.23;10.27;;;8.60;99.90;;;;;;6092074;23;20017;-84
2024/03/19 01:28:23;;;;;;;16.58;10.80;;;8.70;99.90;;;;;;6126518;23;20027;-88
2024/03/19 01:30:50;;;;;;;19.23;11.98;;;8.70;99.90;;;;;;6128172;23;20005;-87
2024/03/19 01:33:16;;;;;;;15.52;10.07;;;8.80;99.90;;;;;;6117753;23;20345;-87
2024/03/19 01:35:42;;;;;;;15.35;11.95;;;8.80;99.90;;;;;;6151321;23;20009;-88
2024/03/19 01:38:10;;;;;;;15.48;12.05;;;8.80;99.90;;;;;;6136625;23;20511;-84
2024/03/19 01:40:36;;;;;;;16.25;10.82;;;8.80;99.90;;;;;;6120729;23;20013;-91
2024/03/19 01:43:11;;;;;;;21.15;12.82;;;8.80;99.90;;;;;;6120385;23;20012;-85
2024/03/19 01:45:38;;;;;;;17.83;11.63;;;8.80;99.90;;;;;;6119573;23;20020;-87
2024/03/19 01:48:05;;;;;;;15.23;10.38;;;8.80;99.90;;;;;;6120576;23;20013;-87
2024/03/19 01:50:32;;;;;;;15.15;10.52;;;8.80;99.90;;;;;;6095056;23;20013;-89
2024/03/19 01:52:58;;;;;;;14.65;10.27;;;8.90;99.90;;;;;;6119216;23;20016;-89
2024/03/19 01:55:24;;;;;;;18.40;11.23;;;8.80;99.90;;;;;;6142681;23;20461;-84
2024/03/19 01:57:52;;;;;;;15.23;10.55;;;8.90;99.90;;;;;;6120291;23;20020;-90
2024/03/19 02:00:18;;;;;;;16.27;11.27;;;8.90;99.90;;;;;;6155201;23;20026;-87
2024/03/19 02:02:45;;;;;;;18.25;11.73;;;8.90;99.90;;;;;;6095971;23;20017;-87
2024/03/19 02:05:11;;;;;;;17.50;11.68;;;8.90;99.90;;;;;;6119841;23;20017;-91
2024/03/19 02:07:37;;;;;;;16.17;11.15;;;8.90;99.90;;;;;;6094310;23;20013;-87
2024/03/19 02:10:06;;;;;;;15.68;11.35;;;8.90;99.90;;;;;;6143870;23;20009;-90
2024/03/19 02:12:33;;;;;;;20.25;12.27;;;8.90;99.90;;;;;;6120818;23;20031;-89
2024/03/19 02:14:59;;;;;;;15.70;10.60;;;9.00;99.90;;;;;;6155287;23;20326;-92
2024/03/19 02:17:26;;;;;;;14.15;9.63;;;8.90;99.90;;;;;;6154582;23;20012;-88
2024/03/19 02:19:52;;;;;;;16.00;9.82;;;8.90;99.90;;;;;;6154409;23;20008;-89
2024/03/19 02:22:21;;;;;;;14.60;10.27;;;8.80;99.90;;;;;;6155509;23;20009;-91
2024/03/19 02:24:47;;;;;;;13.23;9.00;;;8.80;99.90;;;;;;6120230;23;20209;-86
2024/03/19 02:27:13;;;;;;;18.33;10.38;;;8.80;99.90;;;;;;6154727;23;20009;-90
2024/03/19 02:29:43;;;;;;;14.82;9.38;;;8.80;99.90;;;;;;6096776;23;20024;-88
2024/03/19 02:32:10;;;;;;;14.30;9.48;;;8.90;99.90;;;;;;6185095;23;20009;-90
2024/03/19 02:34:36;;;;;;;12.40;9.13;;;9.00;99.90;;;;;;6157389;23;20016;-87
2024/03/19 02:37:03;;;;;;;15.30;10.10;;;9.00;99.90;;;;;;6181810;23;20004;-83
2024/03/19 02:39:29;;;;;;;13.73;8.63;;;9.10;99.90;;;;;;6129456;23;20004;-86
2024/03/19 02:41:55;;;;;;;15.15;9.35;;;9.10;99.90;;;;;;6130192;23;20005;-88
2024/03/19 02:44:22;;;;;;;12.15;8.27;;;9.10;99.90;;;;;;6120103;23;20021;-87
2024/03/19 02:46:48;;;;;;;11.73;8.13;;;9.20;99.90;;;;;;6153417;23;20005;-84
2024/03/19 02:49:14;;;;;;;12.25;8.75;;;9.20;99.90;;;;;;6128189;23;20012;-90
2024/03/19 02:51:41;;;;;;;12.90;8.85;;;9.30;99.90;;;;;;6129765;23;20016;-92
2024/03/19 02:54:07;;;;;;;13.05;8.65;;;9.30;99.90;;;;;;6119803;23;20013;-91
2024/03/19 02:56:33;;;;;;;11.95;8.98;;;9.30;99.90;;;;;;6128767;23;20016;-84
2024/03/19 02:59:00;;;;;;;13.05;9.07;;;9.30;99.90;;;;;;6094161;23;20008;-88
2024/03/19 03:01:26;;;;;;;12.93;8.57;;;9.30;99.90;;;;;;6144309;23;20485;-89
2024/03/19 03:03:52;;;;;;;14.40;8.20;;;9.40;99.90;;;;;;6144944;23;20009;-91
2024/03/19 03:06:18;;;;;;;11.25;7.20;;;9.40;99.90;;;;;;6120200;23;20017;-85
2024/03/19 03:08:45;;;;;;;10.70;7.57;;;9.40;99.90;;;;;;6125294;23;20023;-84
2024/03/19 03:11:11;;;;;;;10.02;6.32;;;9.50;99.90;;;;;;6124242;23;20061;-90
2024/03/19 03:13:37;;;;;;;12.20;7.13;;;9.50;99.90;;;;;;6096911;23;20013;-87
2024/03/19 03:16:04;;;;;;;12.07;7.53;;;9.50;99.90;;;;;;6096815;23;20013;-88
2024/03/19 03:18:31;;;;;;;8.07;6.45;;;9.50;99.90;;;;;;6129727;23;20008;-82
2024/03/19 03:20:57;;;;;;;11.75;7.60;;;9.50;99.90;;;;;;6120311;23;20693;-89
2024/03/19 03:23:23;;;;;;;11.10;7.35;;;9.50;99.90;;;;;;6154800;23;20417;-83
2024/03/19 03:25:49;;;;;;;13.20;7.53;;;9.50;99.90;;;;;;6118576;23;20017;-88
2024/03/19 03:28:16;;;;;;;12.25;6.88;;;9.60;99.90;;;;;;6119090;23;20017;-86
2024/03/19 03:30:42;;;;;;;10.75;6.65;;;9.50;99.90;;;;;;6118816;23;20017;-85
2024/03/19 03:33:11;;;;;;;11.20;6.90;;;9.50;99.90;;;;;;6119514;23;20013;-87
2024/03/19 03:35:38;;;;;;;11.15;6.55;;;9.50;99.90;;;;;;6116876;23;20579;-84
2024/03/19 03:38:07;;;;;;;11.88;7.05;;;9.60;99.90;;;;;;6093358;23;20016;-87
2024/03/19 03:40:33;;;;;;;13.35;7.82;;;9.50;99.90;;;;;;6119026;23;20005;-83
2024/03/19 03:42:59;;;;;;;14.18;9.20;;;9.50;99.90;;;;;;6092090;23;20572;-89
2024/03/19 03:45:26;;;;;;;12.98;7.70;;;9.50;99.90;;;;;;6153149;23;20064;-88
2024/03/19 03:47:52;;;;;;;12.02;7.50;;;9.60;99.90;;;;;;6116195;23;20009;-90
2024/03/19 03:50:18;;;;;;;13.35;8.05;;;9.60;99.90;;;;;;6129446;23;20012;-90
2024/03/19 03:52:45;;;;;;;12.55;7.57;;;9.60;99.90;;;;;;6094774;23;20458;-88
2024/03/19 03:55:12;;;;;;;12.13;7.20;;;9.60;99.90;;;;;;6119353;23;20008;-89
2024/03/19 03:57:42;;;;;;;14.55;8.68;;;9.60;99.90;;;;;;6118133;23;20016;-90
2024/03/19 04:00:10;;;;;;;12.70;7.82;;;9.60;99.90;;;;;;6179590;23;19997;-90
2024/03/19 04:02:37;;;;;;;14.25;8.60;;;9.60;99.90;;;;;;6144171;23;20027;-89
2024/03/19 04:05:04;;;;;;;13.68;9.52;;;9.70;99.90;;;;;;6154612;23;20309;-91
2024/03/19 04:07:31;;;;;;;14.02;9.95;;;9.70;99.90;;;;;;6153851;23;20027;-88
2024/03/19 04:09:57;;;;;;;17.73;10.48;;;9.70;99.90;;;;;;6099316;23;20020;-83
2024/03/19 04:12:23;;;;;;;14.00;9.90;;;9.70;99.90;;;;;;6100710;23;20533;-84
2024/03/19 04:14:50;;;;;;;13.68;9.52;;;9.70;99.90;;;;;;6130583;23;20001;-88
2024/03/19 04:17:17;;;;;;;15.02;9.32;;;9.80;99.90;;;;;;6118910;23;20229;-82
2024/03/19 04:19:43;;;;;;;15.57;10.35;;;9.80;99.90;;;;;;6126415;23;20005;-90
2024/03/19 04:22:09;;;;;;;17.55;11.05;;;9.80;99.90;;;;;;6095151;23;20024;-89
2024/03/19 04:24:36;;;;;;;18.70;10.93;;;9.80;99.90;;;;;;6144281;23;20497;-91
2024/03/19 04:27:02;;;;;;;14.77;10.43;;;9.90;99.90;;;;;;6094446;23;20457;-86
2024/03/19 04:29:29;;;;;;;18.08;11.25;;;9.90;99.90;;;;;;6143421;23;20013;-88
2024/03/19 04:31:55;;;;;;;15.70;10.32;;;9.90;99.90;;;;;;6118447;23;20024;-88
2024/03/19 04:34:22;;;;;;;16.70;10.70;;;9.90;99.90;;;;;;6143558;23;20016;-88
2024/03/19 04:36:48;;;;;;;13.43;10.10;;;9.90;99.90;;;;;;6094795;23;20013;-87
2024/03/19 04:39:17;;;;;;;18.10;11.77;;;9.90;99.90;;;;;;6153182;23;20012;-91
2024/03/19 04:41:43;;;;;;;14.77;10.52;;;9.90;99.90;;;;;;6119766;23;20450;-87
2024/03/19 04:44:10;;;;;;;16.98;11.32;;;9.90;99.90;;;;;;6180378;23;20071;-88
2024/03/19 04:46:36;;;;;;;18.42;13.02;;;9.90;99.90;;;;;;6095313;23;20012;-85
2024/03/19 04:49:03;;;;;;;22.33;13.35;;;9.90;99.90;;;;;;6097560;23;20012;-88
2024/03/19 04:51:31;;;;;;;20.27;11.90;;;9.90;99.90;;;;;;6120623;23;20016;-85
2024/03/19 04:53:58;;;;;;;17.77;11.93;;;9.90;99.90;;;;;;6117958;23;20020;-84
2024/03/19 04:56:24;;;;;;;18.45;12.77;;;9.90;99.90;;;;;;6116502;23;20342;-86
2024/03/19 04:58:51;;;;;;;19.75;11.77;;;10.00;99.90;;;;;;6093647;23;20044;-87
2024/03/19 05:01:18;;;;;;;14.80;11.30;;;10.00;99.90;;;;;;6117815;23;20449;-88
2024/03/19 05:03:45;;;;;;;18.45;12.30;;;9.90;99.90;;;;;;6118558;23;20009;-85
2024/03/19 05:06:12;;;;;;;16.77;11.77;;;10.00;99.90;;;;;;6142676;23;20354;-86
2024/03/19 05:08:39;;;;;;;17.67;12.48;;;10.00;99.90;;;;;;6145421;23;20017;-87
2024/03/19 05:11:06;;;;;;;17.92;12.45;;;10.00;99.90;;;;;;6120062;23;20005;-86
2024/03/19 05:13:32;;;;;;;17.95;11.88;;;10.00;99.90;;;;;;6130252;23;19997;-89
2024/03/19 05:15:59;;;;;;;18.88;12.15;;;10.00;99.90;;;;;;6095092;23;20013;-88
2024/03/19 05:18:25;;;;;;;17.92;12.40;;;10.00;99.90;;;;;;6094957;23;20040;-88
2024/03/19 05:20:51;;;;;;;14.82;11.70;;;10.00;99.90;;;;;;6130328;23;20013;-88
2024/03/19 05:23:18;;;;;;;18.40;12.88;;;10.00;99.90;;;;;;6144680;23;20013;-86
2024/03/19 05:25:44;;;;;;;19.33;12.63;;;10.00;99.90;;;;;;6126636;23;20001;-90
2024/03/19 05:28:11;;;;;;;18.17;12.32;;;10.00;99.90;;;;;;6116174;23;20021;-88
2024/03/19 05:30:37;;;;;;;17.50;11.85;;;10.00;99.90;;;;;;6093457;23;20009;-82
2024/03/19 05:33:04;;;;;;;17.75;13.02;;;10.00;99.90;;;;;;6128341;23;20013;-90
2024/03/19 05:35:30;;;;;;;17.25;12.55;;;10.00;99.90;;;;;;6093517;23;20428;-88
2024/03/19 05:37:57;;;;;;;18.02;13.35;;;10.00;99.90;;;;;;6092917;23;20458;-84
2024/03/19 05:40:23;;;;;;;20.17;12.63;;;10.00;99.90;;;;;;6128925;23;20020;-82
2024/03/19 05:42:50;;;;;;;16.08;11.98;;;10.00;99.90;;;;;;6142727;23;20024;-89
2024/03/19 05:45:16;;;;;;;18.58;12.45;;;10.00;99.90;;;;;;6093709;23;20465;-88
2024/03/19 05:47:43;;;;;;;17.48;13.07;;;10.00;99.90;;;;;;6178722;23;20009;-90
2024/03/19 05:50:11;;;;;;;19.52;12.27;;;10.00;99.90;;;;;;6152049;23;20009;-88
2024/03/19 05:52:39;;;;;;;21.00;14.27;;;10.00;99.90;;;;;;6118321;23;20381;-85
2024/03/19 05:55:09;;;;;;;17.35;12.00;;;10.00;99.90;;;;;;6093947;23;20005;-86
2024/03/19 05:57:36;;;;;;;20.02;12.60;;;10.00;99.90;;;;;;6116481;23;20016;-83
2024/03/19 06:00:06;;;;;;;19.02;12.35;;;10.00;99.90;;;;;;6127989;23;20036;-88
2024/03/19 06:02:34;;;;;;;19.58;13.48;;;10.00;99.90;;;;;;6144657;23;20472;-88
2024/03/19 06:05:00;;;;;;;17.27;10.73;;;10.10;99.90;;;;;;6120756;23;20760;-90
2024/03/19 06:07:26;;;;;;;17.50;11.75;;;10.10;99.90;;;;;;6094584;23;20430;-88
2024/03/19 06:09:53;;;;;;;19.05;13.65;;;10.10;99.90;;;;;;6092765;23;20021;-84
2024/03/19 06:12:19;;;;;;;22.35;12.68;;;10.10;99.90;;;;;;6094305;23;20012;-89
2024/03/19 06:14:45;;;;;;;16.23;12.13;;;10.10;99.90;;;;;;6180389;23;20005;-86
2024/03/19 06:17:12;;;;;;;22.33;13.90;;;10.20;99.90;;;;;;6118345;23;20013;-87
2024/03/19 06:19:38;;;;;;;25.23;16.42;;;10.20;99.90;;;;;;6116661;23;20013;-84
2024/03/19 06:22:04;;;;;;;20.38;14.32;;;10.20;99.90;;;;;;6153542;23;20059;-87
2024/03/19 06:24:31;;;;;;;21.20;13.10;;;10.20;99.90;;;;;;6155470;23;20009;-87
2024/03/19 06:26:58;;;;;;;16.70;11.75;;;10.30;99.90;;;;;;6142046;23;20020;-87
2024/03/19 06:29:24;;;;;;;20.35;12.85;;;10.30;99.90;;;;;;6093554;23;20020;-86
2024/03/19 06:31:50;;;;;;;19.88;13.57;;;10.30;99.90;;;;;;6118272;23;20040;-88
2024/03/19 06:34:17;;;;;;;15.98;12.32;;;10.40;99.90;;;;;;6119105;23;20016;-85
2024/03/19 06:36:43;;;;;;;17.15;12.27;;;10.40;99.90;;;;;;6129466;23;20307;-88
2024/03/19 06:39:09;;;;;;;19.30;12.77;;;10.40;99.90;;;;;;6117894;23;20009;-85
2024/03/19 06:41:36;;;;;;;20.73;14.20;;;10.40;99.90;;;;;;6095461;23;20349;-87
2024/03/19 06:44:02;;;;;;;19.90;13.27;;;10.50;99.90;;;;;;6119546;23;20013;-89
2024/03/19 06:46:28;;;;;;;16.55;12.82;;;10.50;99.90;;;;;;6142664;23;20017;-88
2024/03/19 06:48:55;;;;;;;17.60;12.50;;;10.60;99.90;;;;;;6117779;23;20027;-82
2024/03/19 06:51:21;;;;;;;17.88;12.82;;;10.60;99.90;;;;;;6093959;23;20453;-88
2024/03/19 06:53:48;;;;;;;19.55;13.45;;;10.60;99.90;;;;;;6119426;23;20013;-86
2024/03/19 06:56:15;;;;;;;23.88;15.63;;;10.70;99.90;;;;;;6128668;23;20008;-87
2024/03/19 06:58:44;;;;;;;20.30;13.27;;;10.70;99.90;;;;;;6095077;23;20009;-89
2024/03/19 07:01:11;;;;;;;19.20;12.93;;;10.80;99.90;;;;;;6141985;23;20013;-87
2024/03/19 07:03:38;;;;;;;17.13;13.20;;;10.80;99.90;;;;;;6094975;23;20477;-89
2024/03/19 07:06:04;;;;;;;20.75;14.02;;;10.80;99.90;;;;;;6154173;23;19997;-89
2024/03/19 07:08:31;;;;;;;17.27;12.57;;;10.90;99.90;;;;;;6093494;23;20361;-85
2024/03/19 07:10:57;;;;;;;17.08;12.88;;;10.90;99.90;;;;;;6118753;23;20508;-90
2024/03/19 07:13:25;;;;;;;16.23;11.75;;;10.90;99.90;;;;;;6154547;23;20020;-88
2024/03/19 07:15:51;;;;;;;16.95;12.50;;;10.90;99.90;;;;;;6180319;23;20001;-86
2024/03/19 07:18:20;;;;;;;19.60;13.38;;;10.90;99.90;;;;;;6092703;23;20862;-88
2024/03/19 07:20:46;;;;;;;19.05;13.50;;;11.00;99.90;;;;;;6129367;23;20001;-85
2024/03/19 07:23:13;;;;;;;20.70;12.70;;;11.00;99.90;;;;;;6095823;23;20024;-85
2024/03/19 07:25:39;;;;;;;20.35;13.73;;;11.10;99.90;;;;;;6119243;23;20017;-89
2024/03/19 07:28:06;;;;;;;20.25;14.18;;;11.10;99.90;;;;;;6118693;23;20009;-86
2024/03/19 07:30:32;;;;;;;18.23;13.02;;;11.10;99.90;;;;;;6148542;23;20021;-87
2024/03/19 07:32:59;;;;;;;17.60;12.57;;;11.10;99.90;;;;;;6118247;23;20020;-90
2024/03/19 07:35:25;;;;;;;21.63;14.07;;;11.20;99.90;;;;;;6154450;23;19997;-89
2024/03/19 07:37:52;;;;;;;19.05;14.10;;;11.20;99.90;;;;;;6119497;23;20013;-92
2024/03/19 07:40:21;;;;;;;17.75;12.90;;;11.20;99.90;;;;;;6144314;23;20346;-89
2024/03/19 07:42:51;;;;;;;22.92;15.10;;;11.30;99.90;;;;;;6130500;23;20579;-89
2024/03/19 07:45:18;;;;;;;21.27;14.98;;;11.30;99.90;;;;;;6180892;23;20013;-89
2024/03/19 07:47:44;;;;;;;19.88;13.15;;;11.30;99.90;;;;;;6120629;23;20020;-90
2024/03/19 07:50:17;;;;;;;19.52;13.63;;;11.40;99.90;;;;;;6159145;23;20456;-86
2024/03/19 07:52:47;;;;;;;18.02;13.75;;;11.40;99.90;;;;;;6127153;23;20005;-89
2024/03/19 07:55:13;;;;;;;18.63;13.95;;;11.50;99.90;;;;;;6161860;23;20005;-86
2024/03/19 07:57:39;;;;;;;19.83;13.48;;;11.50;99.90;;;;;;6101634;23;20469;-88
2024/03/19 08:00:09;;;;;;;17.63;12.30;;;11.50;99.90;;;;;;6123080;23;20497;-89
2024/03/19 08:02:39;;;;;;;18.95;12.68;;;11.50;99.90;;;;;;6124134;23;20191;-90
2024/03/19 08:05:07;;;;;;;18.63;13.88;;;11.60;99.90;;;;;;6095834;23;20013;-86
2024/03/19 08:07:36;;;;;;;16.10;11.63;;;11.60;99.90;;;;;;6095092;23;20009;-88
2024/03/19 08:10:04;;;;;;;17.05;12.07;;;11.70;99.90;;;;;;6095554;23;20020;-89
2024/03/19 08:12:30;;;;;;;14.02;10.77;;;11.80;99.90;;;;;;6119917;23;20004;-91
2024/03/19 08:15:00;;;;;;;18.05;12.88;;;11.90;99.90;;;;;;6117869;23;20020;-91
2024/03/19 08:17:27;;;;;;;17.90;12.15;;;11.90;99.90;;;;;;6117636;23;20008;-93
2024/03/19 08:19:54;;;;;;;17.70;12.43;;;12.00;99.90;;;;;;6117113;23;20342;-89
2024/03/19 08:22:21;;;;;;;16.98;12.05;;;12.10;99.90;;;;;;6093309;23;20016;-90
2024/03/19 08:24:48;;;;;;;17.63;12.82;;;12.20;99.90;;;;;;6128382;23;20005;-91
2024/03/19 08:27:15;;;;;;;17.88;12.32;;;12.30;99.90;;;;;;6127626;23;20164;-87
2024/03/19 08:29:42;;;;;;;17.33;12.48;;;12.40;99.90;;;;;;6116894;23;20445;-89
2024/03/19 08:32:09;;;;;;;19.20;13.52;;;12.50;99.90;;;;;;6093729;23;20020;-89
2024/03/19 08:34:35;;;;;;;15.85;12.57;;;12.60;99.90;;;;;;6129365;23;20004;-85
2024/03/19 08:37:02;;;;;;;19.52;13.60;;;12.70;99.90;;;;;;6094478;23;20042;-85
2024/03/19 08:39:29;;;;;;;20.55;14.05;;;12.80;99.90;;;;;;6179581;23;20001;-88
2024/03/19 08:41:55;;;;;;;17.42;12.43;;;12.90;99.90;;;;;;6180357;23;20405;-87
2024/03/19 08:44:22;;;;;;;16.27;12.30;;;13.00;99.90;;;;;;6118398;23;20237;-89
2024/03/19 08:46:48;;;;;;;18.90;12.50;;;13.10;99.90;;;;;;6117788;23;20020;-86
2024/03/19 08:49:16;;;;;;;18.00;11.40;;;13.20;99.90;;;;;;6091541;23;20017;-89
2024/03/19 08:51:43;;;;;;;19.95;12.55;;;13.30;99.90;;;;;;6143423;23;20016;-90
2024/03/19 08:54:09;;;;;;;19.13;13.23;;;13.40;99.90;;;;;;6118645;23;20009;-89
2024/03/19 08:56:36;;;;;;;14.80;11.70;;;13.60;99.90;;;;;;6144995;23;20019;-89
2024/03/19 08:59:03;;;;;;;14.80;11.07;;;13.70;99.90;;;;;;6117808;23;20429;-87
2024/03/19 09:01:29;;;;;;;12.85;9.60;;;13.80;99.90;;;;;;6122117;23;20013;-87
2024/03/19 09:03:56;;;;;;;13.40;9.75;;;14.00;99.90;;;;;;6154615;23;20005;-87
2024/03/19 09:06:22;;;;;;;13.55;9.82;;;14.10;99.90;;;;;;6094476;23;20522;-86
2024/03/19 09:08:49;;;;;;;13.27;8.65;;;14.30;99.90;;;;;;6117454;23;20009;-85
2024/03/19 09:11:15;;;;;;;10.40;7.72;;;14.40;99.90;;;;;;6128077;23;20020;-90
2024/03/19 09:13:42;;;;;;;11.25;7.25;;;14.40;99.90;;;;;;6179899;23;20013;-86
2024/03/19 09:16:09;;;;;;;9.55;6.88;;;14.50;99.90;;;;;;6128200;23;20005;-88
2024/03/19 09:18:35;;;;;;;11.18;7.50;;;14.50;99.90;;;;;;6116686;23;20006;-87
2024/03/19 09:21:02;;;;;;;10.50;7.18;;;14.60;99.90;;;;;;6093764;23;20242;-89
2024/03/19 09:23:28;;;;;;;10.85;7.03;;;14.70;99.90;;;;;;6116638;23;20327;-86
2024/03/19 09:25:54;;;;;;;9.13;5.03;;;14.80;99.90;;;;;;6146423;23;20009;-88
2024/03/19 09:28:21;;;;;;;7.63;5.15;;;14.90;99.90;;;;;;6149516;23;20134;-82
2024/03/19 09:30:48;;;;;;;7.53;4.75;;;15.00;99.90;;;;;;6114894;23;20024;-83
2024/03/19 09:33:15;;;;;;;7.40;4.97;;;15.20;99.90;;;;;;6114950;23;21072;-85
2024/03/19 09:35:41;;;;;;;5.93;3.47;;;15.30;99.90;;;;;;6113666;23;20016;-85
2024/03/19 09:38:07;;;;;;;4.25;2.97;;;15.40;99.90;;;;;;6174575;23;20005;-81
2024/03/19 09:40:36;;;;;;;5.47;3.17;;;15.60;99.90;;;;;;6139293;23;20013;-82
2024/03/19 09:43:04;;;;;;;6.25;3.80;;;15.70;99.90;;;;;;6138794;23;20023;-85
2024/03/19 09:45:31;;;;;;;4.47;2.67;;;15.70;99.90;;;;;;6090574;23;20009;-87
2024/03/19 09:47:57;;;;;;;5.68;2.63;;;15.80;99.90;;;;;;6175436;23;20005;-86
2024/03/19 09:50:28;;;;;;;5.43;2.63;;;15.90;99.90;;;;;;6124904;23;20005;-86
2024/03/19 09:52:57;;;;;;;3.95;2.67;;;16.00;99.90;;;;;;6114989;23;20016;-84
2024/03/19 09:55:26;;;;;;;4.68;3.22;;;16.20;99.90;;;;;;6115537;23;20540;-82
2024/03/19 09:57:55;;;;;;;4.53;2.85;;;16.40;99.90;;;;;;6140789;23;20334;-83
2024/03/19 10:00:28;;;;;;;4.85;2.70;;;16.50;99.90;;;;;;6119226;23;20005;-84
2024/03/19 10:02:55;;;;;;;5.88;3.60;;;16.70;99.90;;;;;;6118970;23;20006;-84
2024/03/19 10:05:22;;;;;;;9.55;5.38;;;16.90;99.90;;;;;;6095370;23;20013;-82
2024/03/19 10:07:51;;;;;;;3.92;2.65;;;17.10;99.90;;;;;;6179472;23;20020;-83
2024/03/19 10:10:18;;;;;;;2.28;1.20;;;17.20;99.90;;;;;;6090767;23;20256;-82
2024/03/19 10:12:46;;;;;;;4.13;0.95;;;17.30;99.90;;;;;;6116480;23;20052;-83
2024/03/19 10:15:20;;;;;;;3.60;1.00;;;17.50;99.90;;;;;;6175887;23;20326;-79
2024/03/19 10:17:48;;;;;;;3.05;0.70;;;17.60;99.90;;;;;;6150070;23;20012;-81
2024/03/19 10:20:15;;;;;;;2.85;1.48;;;17.80;99.90;;;;;;6149397;23;20013;-82
2024/03/19 10:22:46;;;;;;;2.00;0.60;;;18.00;99.90;;;;;;6117698;23;20361;-87
2024/03/19 10:25:14;;;;;;;2.92;1.48;;;18.40;99.90;;;;;;6151944;23;20012;-83
2024/03/19 10:27:48;;;;;;;2.20;0.60;;;18.60;99.90;;;;;;6141341;23;20020;-81
2024/03/19 10:30:19;;;;;;;1.52;0.50;;;18.80;99.90;;;;;;6169280;23;20005;-81
2024/03/19 10:32:46;;;;;;;2.35;0.65;;;19.00;99.90;;;;;;6141747;23;20371;-84
2024/03/19 10:35:23;;;;;;;2.13;0.70;;;19.20;99.90;;;;;;6151418;23;20020;-82
2024/03/19 10:37:51;;;;;;;2.85;0.70;;;19.30;99.90;;;;;;6150068;23;20053;-85
2024/03/19 10:40:19;;;;;;;2.78;0.80;;;19.30;99.90;;;;;;6150437;23;19997;-85
2024/03/19 10:42:48;;;;;;;1.88;0.40;;;19.20;99.90;;;;;;6115837;23;20690;-83
2024/03/19 10:45:19;;;;;;;1.00;0.40;;;19.20;99.90;;;;;;6092891;23;20009;-87
2024/03/19 10:47:47;;;;;;;5.95;0.90;;;19.10;99.90;;;;;;6115945;23;20012;-87
2024/03/19 10:50:17;;;;;;;2.95;0.80;;;19.20;99.90;;;;;;6091615;23;20020;-82
2024/03/19 10:52:53;;;;;;;5.55;0.85;;;19.20;99.90;;;;;;6151599;23;20002;-84
2024/03/19 10:55:20;;;;;;;5.03;1.13;;;19.30;99.90;;;;;;6117700;23;20024;-88
2024/03/19 10:57:47;;;;;;;8.63;2.47;;;19.20;99.90;;;;;;6143476;23;20370;-82
2024/03/19 11:00:23;;;;;;;7.45;2.53;;;19.20;99.90;;;;;;6119873;23;20360;-83
2024/03/19 11:02:59;;;;;;;5.05;1.65;;;19.20;99.90;;;;;;6121529;23;20024;-86
2024/03/19 11:05:27;;;;;;;8.30;2.55;;;19.20;99.90;;;;;;6145281;23;20473;-81
2024/03/19 11:07:56;;;;;;;4.60;1.40;;;19.10;99.90;;;;;;6118338;23;20005;-85
2024/03/19 11:10:40;;;;;;;6.50;1.52;;;19.10;99.90;;;;;;6140930;23;20005;-86
2024/03/19 11:13:08;;;;;;;4.07;1.85;;;19.00;99.90;;;;;;6179516;23;20008;-84
2024/03/19 11:15:36;;;;;;;6.35;1.75;;;19.00;99.90;;;;;;6151920;23;20020;-90
2024/03/19 11:18:16;;;;;;;5.22;1.83;;;18.90;99.90;;;;;;6151568;23;20008;-83
2024/03/19 11:20:48;;;;;;;5.90;1.80;;;18.80;99.90;;;;;;6117242;23;20659;-88
2024/03/19 11:23:19;;;;;;;6.43;1.63;;;18.80;99.90;;;;;;6117732;23;20009;-86
2024/03/19 11:25:47;;;;;;;4.78;1.30;;;18.70;99.90;;;;;;6145835;23;20005;-86
2024/03/19 11:28:27;;;;;;;7.10;1.42;;;18.60;99.90;;;;;;6151477;23;20326;-84
2024/03/19 11:31:00;;;;;;;5.45;1.15;;;18.80;99.90;;;;;;6150663;23;20020;-89
2024/03/19 11:33:27;;;;;;;7.03;1.17;;;19.10;99.90;;;;;;6092880;23;20009;-87
2024/03/19 11:35:54;;;;;;;6.72;1.17;;;19.60;99.90;;;;;;6178909;23;20016;-88
2024/03/19 11:38:20;;;;;;;4.88;1.20;;;20.30;99.90;;;;;;6140245;23;20009;-88
2024/03/19 11:40:48;;;;;;;6.30;1.10;;;20.90;99.90;;;;;;6151956;23;20012;-89
2024/03/19 11:43:17;;;;;;;5.15;1.23;;;21.30;99.90;;;;;;6150860;23;20012;-83
2024/03/19 11:45:48;;;;;;;2.45;0.70;;;21.60;99.90;;;;;;6116702;23;20009;-90
2024/03/19 11:48:18;;;;;;;5.63;1.02;;;21.70;99.90;;;;;;6175659;23;20016;-87
2024/03/19 11:50:53;;;;;;;4.57;1.30;;;21.80;99.90;;;;;;6126068;23;20016;-87
2024/03/19 11:53:21;;;;;;;6.75;1.55;;;22.30;99.90;;;;;;6091986;23;20009;-88
2024/03/19 11:55:49;;;;;;;6.88;1.23;;;22.60;99.90;;;;;;6151007;23;20005;-87
2024/03/19 11:58:16;;;;;;;4.53;1.10;;;23.00;99.90;;;;;;6090331;23;20005;-85
2024/03/19 12:00:43;;;;;;;5.03;1.40;;;22.90;99.90;;;;;;6090967;23;20498;-85
2024/03/19 12:03:13;;;;;;;7.20;2.00;;;22.60;99.90;;;;;;6139627;23;20024;-88
2024/03/19 12:05:50;;;;;;;4.00;1.50;;;22.30;99.90;;;;;;6115377;23;20319;-85
2024/03/19 12:08:17;;;;;;;3.70;1.00;;;21.90;99.90;;;;;;6138772;23;20044;-83
2024/03/19 12:10:44;;;;;;;5.10;0.80;;;21.50;99.90;;;;;;6126158;23;20525;-88
2024/03/19 12:13:12;;;;;;;4.78;1.25;;;21.20;99.90;;;;;;6116330;23;20350;-84
2024/03/19 12:15:40;;;;;;;7.28;2.00;;;20.90;99.90;;;;;;6115787;23;20425;-87
2024/03/19 12:18:08;;;;;;;4.40;1.00;;;20.60;99.90;;;;;;6176893;23;20008;-87
2024/03/19 12:20:36;;;;;;;6.38;1.52;;;20.30;99.90;;;;;;6091315;23;20009;-88
2024/03/19 12:23:03;;;;;;;4.78;1.20;;;20.10;99.90;;;;;;6094819;23;20020;-86
2024/03/19 12:25:35;;;;;;;3.63;0.80;;;20.00;99.90;;;;;;6116208;23;20769;-84
2024/03/19 12:28:03;;;;;;;3.60;1.38;;;19.90;99.90;;;;;;6091703;23;20038;-85
2024/03/19 12:30:31;;;;;;;8.70;3.50;;;19.90;99.90;;;;;;6112442;23;20020;-86
2024/03/19 12:33:12;;;;;;;5.13;1.92;;;19.90;99.90;;;;;;6149889;23;20013;-86
2024/03/19 12:35:40;;;;;;;4.18;1.00;;;20.00;99.90;;;;;;6113141;23;20009;-90
2024/03/19 12:38:11;;;;;;;5.10;1.20;;;20.00;99.90;;;;;;6113405;23;20005;-87